Terminal Aerodrome Forecast
Issued by NWS Columbia, SC

Home | Current Version | Previous Version | Text Only | Print | Product List | Glossary On
Versions: 1 2 3 4 5 6 7 8 9 10 11 12 13 14 15 16 17 18 19 20 21 22 23 24 25 26 27 28 29 30 31 32 33 34 35 36 37 38 39 40 41 42 43 44 45 46 47 48
662
FTUS42 KCAE 051426 AAA
TAFAGS
TAF AMD
KAGS 051426Z 0514/0612 36007KT P6SM OVC007
     FM051800 07005KT P6SM VCSH OVC015
     FM060000 07005KT 4SM -RA BR OVC008
     FM060300 07007KT 3SM -RA BR OVC005
     FM060900 05007KT 2SM -RA BR OVC006 WS020/17040KT=

USA.gov is the U.S. government's official web portal to all federal, state and local government web resources and services.